sensor_id;sensor_type;location;lat;lon;timestamp;temperature;humidity
36652;DHT22;53334;51.976;20.144;2022-07-01T00:01:01;26.70;53.30
36652;DHT22;53334;51.976;20.144;2022-07-01T00:03:35;26.70;53.50
36652;DHT22;53334;51.976;20.144;2022-07-01T00:06:09;26.70;53.50
36652;DHT22;53334;51.976;20.144;2022-07-01T00:08:43;26.70;53.50
36652;DHT22;53334;51.976;20.144;2022-07-01T00:11:18;26.70;53.50
36652;DHT22;53334;51.976;20.144;2022-07-01T00:13:52;26.70;53.70
36652;DHT22;53334;51.976;20.144;2022-07-01T00:16:28;26.70;53.90
36652;DHT22;53334;51.976;20.144;2022-07-01T00:19:02;26.70;53.90
36652;DHT22;53334;51.976;20.144;2022-07-01T00:21:36;26.70;53.90
36652;DHT22;53334;51.976;20.144;2022-07-01T00:24:10;26.70;53.80
36652;DHT22;53334;51.976;20.144;2022-07-01T00:26:44;26.70;53.80
36652;DHT22;53334;51.976;20.144;2022-07-01T00:29:18;26.70;53.80
36652;DHT22;53334;51.976;20.144;2022-07-01T00:31:54;26.70;53.80
36652;DHT22;53334;51.976;20.144;2022-07-01T00:34:28;26.70;53.80
36652;DHT22;53334;51.976;20.144;2022-07-01T00:37:02;26.70;53.90
36652;DHT22;53334;51.976;20.144;2022-07-01T00:39:36;26.70;54.00
36652;DHT22;53334;51.976;20.144;2022-07-01T00:42:11;26.70;54.00
36652;DHT22;53334;51.976;20.144;2022-07-01T00:44:45;26.70;54.10
36652;DHT22;53334;51.976;20.144;2022-07-01T00:47:21;26.70;54.00
36652;DHT22;53334;51.976;20.144;2022-07-01T00:49:56;26.70;54.00
36652;DHT22;53334;51.976;20.144;2022-07-01T00:52:30;26.70;54.00
36652;DHT22;53334;51.976;20.144;2022-07-01T00:55:07;26.70;54.10
36652;DHT22;53334;51.976;20.144;2022-07-01T00:57:42;26.70;54.00
36652;DHT22;53334;51.976;20.144;2022-07-01T01:00:18;26.70;54.00
36652;DHT22;53334;51.976;20.144;2022-07-01T01:02:55;26.70;54.00
36652;DHT22;53334;51.976;20.144;2022-07-01T01:05:29;26.70;54.00
36652;DHT22;53334;51.976;20.144;2022-07-01T01:08:03;26.70;53.90
36652;DHT22;53334;51.976;20.144;2022-07-01T01:10:37;26.70;54.00
36652;DHT22;53334;51.976;20.144;2022-07-01T01:13:11;26.70;54.00
36652;DHT22;53334;51.976;20.144;2022-07-01T01:15:45;26.70;54.10
36652;DHT22;53334;51.976;20.144;2022-07-01T01:18:21;26.70;54.10
36652;DHT22;53334;51.976;20.144;2022-07-01T01:20:56;26.70;54.10
36652;DHT22;53334;51.976;20.144;2022-07-01T01:23:30;26.70;54.00
36652;DHT22;53334;51.976;20.144;2022-07-01T01:26:05;26.80;54.10
36652;DHT22;53334;51.976;20.144;2022-07-01T01:28:48;26.70;54.10
36652;DHT22;53334;51.976;20.144;2022-07-01T01:31:28;26.70;54.10
36652;DHT22;53334;51.976;20.144;2022-07-01T01:34:03;26.70;54.10
36652;DHT22;53334;51.976;20.144;2022-07-01T01:36:38;26.70;54.20
36652;DHT22;53334;51.976;20.144;2022-07-01T01:39:12;26.70;54.20
36652;DHT22;53334;51.976;20.144;2022-07-01T01:41:47;26.70;54.80
36652;DHT22;53334;51.976;20.144;2022-07-01T01:44:21;26.80;54.40
36652;DHT22;53334;51.976;20.144;2022-07-01T01:46:55;26.80;54.40
36652;DHT22;53334;51.976;20.144;2022-07-01T01:49:29;26.70;54.30
36652;DHT22;53334;51.976;20.144;2022-07-01T01:52:04;26.80;54.40
36652;DHT22;53334;51.976;20.144;2022-07-01T01:54:38;26.80;54.40
36652;DHT22;53334;51.976;20.144;2022-07-01T01:57:13;26.80;54.50
36652;DHT22;53334;51.976;20.144;2022-07-01T01:59:47;26.70;54.40
36652;DHT22;53334;51.976;20.144;2022-07-01T02:02:21;26.70;54.40
36652;DHT22;53334;51.976;20.144;2022-07-01T02:04:54;26.70;54.50
36652;DHT22;53334;51.976;20.144;2022-07-01T02:07:30;26.80;54.60
36652;DHT22;53334;51.976;20.144;2022-07-01T02:10:05;26.80;54.60
36652;DHT22;53334;51.976;20.144;2022-07-01T02:12:39;26.70;54.50
36652;DHT22;53334;51.976;20.144;2022-07-01T02:15:13;26.80;54.50
36652;DHT22;53334;51.976;20.144;2022-07-01T02:17:47;26.70;54.60
36652;DHT22;53334;51.976;20.144;2022-07-01T02:20:20;26.80;54.60
36652;DHT22;53334;51.976;20.144;2022-07-01T02:22:55;26.80;54.70
36652;DHT22;53334;51.976;20.144;2022-07-01T02:25:33;26.70;54.60
36652;DHT22;53334;51.976;20.144;2022-07-01T02:28:08;26.80;54.70
36652;DHT22;53334;51.976;20.144;2022-07-01T02:30:42;26.80;54.70
36652;DHT22;53334;51.976;20.144;2022-07-01T02:33:16;26.80;54.70
36652;DHT22;53334;51.976;20.144;2022-07-01T02:35:49;26.80;54.80
36652;DHT22;53334;51.976;20.144;2022-07-01T02:38:25;26.80;54.80
36652;DHT22;53334;51.976;20.144;2022-07-01T02:40:59;26.80;54.80
36652;DHT22;53334;51.976;20.144;2022-07-01T02:43:32;26.70;54.70
36652;DHT22;53334;51.976;20.144;2022-07-01T02:46:06;26.80;54.80
36652;DHT22;53334;51.976;20.144;2022-07-01T02:48:40;26.80;54.80
36652;DHT22;53334;51.976;20.144;2022-07-01T02:51:14;26.80;54.80
36652;DHT22;53334;51.976;20.144;2022-07-01T02:53:49;26.80;54.80
36652;DHT22;53334;51.976;20.144;2022-07-01T02:56:23;26.70;54.70
36652;DHT22;53334;51.976;20.144;2022-07-01T02:58:56;26.70;54.80
36652;DHT22;53334;51.976;20.144;2022-07-01T03:01:30;26.80;54.80
36652;DHT22;53334;51.976;20.144;2022-07-01T03:04:04;26.80;54.80
36652;DHT22;53334;51.976;20.144;2022-07-01T03:06:38;26.80;54.90
36652;DHT22;53334;51.976;20.144;2022-07-01T03:09:14;26.80;54.90
36652;DHT22;53334;51.976;20.144;2022-07-01T03:11:48;26.70;54.80
36652;DHT22;53334;51.976;20.144;2022-07-01T03:14:23;26.70;54.80
36652;DHT22;53334;51.976;20.144;2022-07-01T03:16:56;26.80;54.80
36652;DHT22;53334;51.976;20.144;2022-07-01T03:19:30;26.80;54.80
36652;DHT22;53334;51.976;20.144;2022-07-01T03:22:04;26.70;54.80
36652;DHT22;53334;51.976;20.144;2022-07-01T03:24:39;26.80;54.80
36652;DHT22;53334;51.976;20.144;2022-07-01T03:27:13;26.80;54.90
36652;DHT22;53334;51.976;20.144;2022-07-01T03:29:48;26.80;54.90
36652;DHT22;53334;51.976;20.144;2022-07-01T03:32:22;26.80;54.90
36652;DHT22;53334;51.976;20.144;2022-07-01T03:34:56;26.80;54.90
36652;DHT22;53334;51.976;20.144;2022-07-01T03:37:29;26.80;54.90
36652;DHT22;53334;51.976;20.144;2022-07-01T03:40:06;26.80;54.90
36652;DHT22;53334;51.976;20.144;2022-07-01T03:42:40;26.70;54.90
36652;DHT22;53334;51.976;20.144;2022-07-01T03:45:14;26.80;54.90
36652;DHT22;53334;51.976;20.144;2022-07-01T03:47:48;26.80;54.90
36652;DHT22;53334;51.976;20.144;2022-07-01T03:50:23;26.70;54.90
36652;DHT22;53334;51.976;20.144;2022-07-01T03:52:57;26.80;55.00
36652;DHT22;53334;51.976;20.144;2022-07-01T03:55:50;26.80;54.90
36652;DHT22;53334;51.976;20.144;2022-07-01T03:58:24;26.80;55.00
36652;DHT22;53334;51.976;20.144;2022-07-01T04:00:58;26.80;55.00
36652;DHT22;53334;51.976;20.144;2022-07-01T04:03:32;26.80;55.00
36652;DHT22;53334;51.976;20.144;2022-07-01T04:06:06;26.80;55.10
36652;DHT22;53334;51.976;20.144;2022-07-01T04:08:40;26.80;55.10
36652;DHT22;53334;51.976;20.144;2022-07-01T04:11:16;26.80;55.10
36652;DHT22;53334;51.976;20.144;2022-07-01T04:13:50;26.80;55.10
36652;DHT22;53334;51.976;20.144;2022-07-01T04:16:24;26.80;55.10
36652;DHT22;53334;51.976;20.144;2022-07-01T04:18:59;26.80;55.10
36652;DHT22;53334;51.976;20.144;2022-07-01T04:21:33;26.80;55.10
36652;DHT22;53334;51.976;20.144;2022-07-01T04:24:24;26.80;55.10
36652;DHT22;53334;51.976;20.144;2022-07-01T04:27:00;26.80;55.10
36652;DHT22;53334;51.976;20.144;2022-07-01T04:29:34;26.80;55.20
36652;DHT22;53334;51.976;20.144;2022-07-01T04:32:08;26.80;55.20
36652;DHT22;53334;51.976;20.144;2022-07-01T04:34:42;26.80;55.20
36652;DHT22;53334;51.976;20.144;2022-07-01T04:37:16;26.80;55.30
36652;DHT22;53334;51.976;20.144;2022-07-01T04:39:50;26.80;55.30
36652;DHT22;53334;51.976;20.144;2022-07-01T04:42:25;26.80;55.30
36652;DHT22;53334;51.976;20.144;2022-07-01T04:44:58;26.80;55.40
36652;DHT22;53334;51.976;20.144;2022-07-01T04:47:32;26.80;55.50
36652;DHT22;53334;51.976;20.144;2022-07-01T04:50:05;26.80;55.50
36652;DHT22;53334;51.976;20.144;2022-07-01T04:52:39;26.80;55.50
36652;DHT22;53334;51.976;20.144;2022-07-01T04:55:13;26.80;55.60
36652;DHT22;53334;51.976;20.144;2022-07-01T04:57:48;26.80;55.70
36652;DHT22;53334;51.976;20.144;2022-07-01T05:00:22;26.80;55.70
36652;DHT22;53334;51.976;20.144;2022-07-01T05:02:56;26.80;55.70
36652;DHT22;53334;51.976;20.144;2022-07-01T05:05:30;26.80;55.80
36652;DHT22;53334;51.976;20.144;2022-07-01T05:08:04;26.80;56.10
36652;DHT22;53334;51.976;20.144;2022-07-01T05:10:38;26.80;55.90
36652;DHT22;53334;51.976;20.144;2022-07-01T05:13:13;26.80;55.90
36652;DHT22;53334;51.976;20.144;2022-07-01T05:15:47;26.80;56.00
36652;DHT22;53334;51.976;20.144;2022-07-01T05:18:21;26.80;56.00
36652;DHT22;53334;51.976;20.144;2022-07-01T05:21:08;26.80;56.10
36652;DHT22;53334;51.976;20.144;2022-07-01T05:24:02;26.80;56.40
36652;DHT22;53334;51.976;20.144;2022-07-01T05:26:36;26.80;56.40
36652;DHT22;53334;51.976;20.144;2022-07-01T05:29:12;26.90;56.60
36652;DHT22;53334;51.976;20.144;2022-07-01T05:31:46;26.80;56.80
36652;DHT22;53334;51.976;20.144;2022-07-01T05:34:20;26.90;57.20
36652;DHT22;53334;51.976;20.144;2022-07-01T05:36:54;26.90;57.30
36652;DHT22;53334;51.976;20.144;2022-07-01T05:39:28;26.80;57.40
36652;DHT22;53334;51.976;20.144;2022-07-01T05:42:02;26.90;57.80
36652;DHT22;53334;51.976;20.144;2022-07-01T05:44:37;26.90;58.00
36652;DHT22;53334;51.976;20.144;2022-07-01T05:47:12;26.90;58.20
36652;DHT22;53334;51.976;20.144;2022-07-01T05:49:46;26.90;58.20
36652;DHT22;53334;51.976;20.144;2022-07-01T05:52:19;26.90;58.40
36652;DHT22;53334;51.976;20.144;2022-07-01T05:54:53;26.90;58.30
36652;DHT22;53334;51.976;20.144;2022-07-01T05:57:27;26.90;58.20
36652;DHT22;53334;51.976;20.144;2022-07-01T06:00:04;26.90;57.90
36652;DHT22;53334;51.976;20.144;2022-07-01T06:02:42;27.00;57.90
36652;DHT22;53334;51.976;20.144;2022-07-01T06:05:17;27.00;57.90
36652;DHT22;53334;51.976;20.144;2022-07-01T06:07:50;26.90;58.10
36652;DHT22;53334;51.976;20.144;2022-07-01T06:10:24;27.00;58.30
36652;DHT22;53334;51.976;20.144;2022-07-01T06:12:58;27.00;59.30
36652;DHT22;53334;51.976;20.144;2022-07-01T06:15:33;27.00;59.90
36652;DHT22;53334;51.976;20.144;2022-07-01T06:18:07;27.00;61.00
36652;DHT22;53334;51.976;20.144;2022-07-01T06:20:41;27.10;61.20
36652;DHT22;53334;51.976;20.144;2022-07-01T06:23:15;27.10;61.20
36652;DHT22;53334;51.976;20.144;2022-07-01T06:25:49;27.10;61.20
36652;DHT22;53334;51.976;20.144;2022-07-01T06:28:23;27.10;61.20
36652;DHT22;53334;51.976;20.144;2022-07-01T06:31:03;27.10;61.20
36652;DHT22;53334;51.976;20.144;2022-07-01T06:33:38;27.10;61.20
36652;DHT22;53334;51.976;20.144;2022-07-01T06:36:11;27.10;60.90
36652;DHT22;53334;51.976;20.144;2022-07-01T06:38:46;27.10;60.30
36652;DHT22;53334;51.976;20.144;2022-07-01T06:41:20;27.10;60.00
36652;DHT22;53334;51.976;20.144;2022-07-01T06:44:01;27.10;59.80
36652;DHT22;53334;51.976;20.144;2022-07-01T06:46:39;27.00;59.70
36652;DHT22;53334;51.976;20.144;2022-07-01T06:49:13;27.00;59.20
36652;DHT22;53334;51.976;20.144;2022-07-01T06:51:47;27.00;59.50
36652;DHT22;53334;51.976;20.144;2022-07-01T06:54:21;27.00;59.20
36652;DHT22;53334;51.976;20.144;2022-07-01T06:56:55;27.00;59.10
36652;DHT22;53334;51.976;20.144;2022-07-01T06:59:29;27.00;58.90
36652;DHT22;53334;51.976;20.144;2022-07-01T07:02:05;27.00;58.40
36652;DHT22;53334;51.976;20.144;2022-07-01T07:04:39;27.00;57.40
36652;DHT22;53334;51.976;20.144;2022-07-01T07:07:31;27.00;57.30
36652;DHT22;53334;51.976;20.144;2022-07-01T07:10:06;27.00;57.10
36652;DHT22;53334;51.976;20.144;2022-07-01T07:12:40;27.00;56.90
36652;DHT22;53334;51.976;20.144;2022-07-01T07:15:14;26.90;56.30
36652;DHT22;53334;51.976;20.144;2022-07-01T07:17:56;26.90;55.60
36652;DHT22;53334;51.976;20.144;2022-07-01T07:20:30;26.90;55.10
36652;DHT22;53334;51.976;20.144;2022-07-01T07:23:04;26.90;54.70
36652;DHT22;53334;51.976;20.144;2022-07-01T07:25:38;26.90;54.40
36652;DHT22;53334;51.976;20.144;2022-07-01T07:28:12;26.90;54.10
36652;DHT22;53334;51.976;20.144;2022-07-01T07:30:46;26.90;54.50
36652;DHT22;53334;51.976;20.144;2022-07-01T07:33:22;26.90;53.90
36652;DHT22;53334;51.976;20.144;2022-07-01T07:35:56;26.80;53.60
36652;DHT22;53334;51.976;20.144;2022-07-01T07:38:30;26.90;53.50
36652;DHT22;53334;51.976;20.144;2022-07-01T07:41:04;26.80;53.10
36652;DHT22;53334;51.976;20.144;2022-07-01T07:43:38;26.80;52.80
36652;DHT22;53334;51.976;20.144;2022-07-01T07:46:11;26.80;52.30
36652;DHT22;53334;51.976;20.144;2022-07-01T07:48:48;26.80;51.60
36652;DHT22;53334;51.976;20.144;2022-07-01T07:51:22;26.80;50.80
36652;DHT22;53334;51.976;20.144;2022-07-01T07:53:58;26.80;50.30
36652;DHT22;53334;51.976;20.144;2022-07-01T07:56:33;26.80;49.90
36652;DHT22;53334;51.976;20.144;2022-07-01T07:59:07;26.70;49.60
36652;DHT22;53334;51.976;20.144;2022-07-01T08:01:41;26.70;48.80
36652;DHT22;53334;51.976;20.144;2022-07-01T08:04:16;26.70;48.50
36652;DHT22;53334;51.976;20.144;2022-07-01T08:06:50;26.70;48.00
36652;DHT22;53334;51.976;20.144;2022-07-01T08:09:24;26.70;47.80
36652;DHT22;53334;51.976;20.144;2022-07-01T08:11:58;26.80;47.80
36652;DHT22;53334;51.976;20.144;2022-07-01T08:14:32;26.70;48.20
36652;DHT22;53334;51.976;20.144;2022-07-01T08:17:07;26.80;48.20
36652;DHT22;53334;51.976;20.144;2022-07-01T08:19:43;26.70;48.50
36652;DHT22;53334;51.976;20.144;2022-07-01T08:22:16;26.70;48.10
36652;DHT22;53334;51.976;20.144;2022-07-01T08:24:51;26.70;48.00
36652;DHT22;53334;51.976;20.144;2022-07-01T08:27:25;26.70;47.80
36652;DHT22;53334;51.976;20.144;2022-07-01T08:29:58;26.70;48.50
36652;DHT22;53334;51.976;20.144;2022-07-01T08:32:32;26.60;48.80
36652;DHT22;53334;51.976;20.144;2022-07-01T08:35:21;26.60;49.10
36652;DHT22;53334;51.976;20.144;2022-07-01T08:38:06;26.60;48.70
36652;DHT22;53334;51.976;20.144;2022-07-01T08:40:40;26.50;47.90
36652;DHT22;53334;51.976;20.144;2022-07-01T08:43:14;26.50;47.50
36652;DHT22;53334;51.976;20.144;2022-07-01T08:45:51;26.50;46.90
36652;DHT22;53334;51.976;20.144;2022-07-01T08:48:25;26.40;46.20
36652;DHT22;53334;51.976;20.144;2022-07-01T08:51:01;26.40;45.60
36652;DHT22;53334;51.976;20.144;2022-07-01T08:53:37;26.40;45.00
36652;DHT22;53334;51.976;20.144;2022-07-01T08:56:11;26.40;44.60
36652;DHT22;53334;51.976;20.144;2022-07-01T08:59:02;26.40;44.30
36652;DHT22;53334;51.976;20.144;2022-07-01T09:01:38;26.40;43.80
36652;DHT22;53334;51.976;20.144;2022-07-01T09:04:14;26.40;43.60
36652;DHT22;53334;51.976;20.144;2022-07-01T09:06:50;26.40;43.20
36652;DHT22;53334;51.976;20.144;2022-07-01T09:09:24;26.40;42.70
36652;DHT22;53334;51.976;20.144;2022-07-01T09:11:58;26.30;42.50
36652;DHT22;53334;51.976;20.144;2022-07-01T09:14:34;26.30;42.20
36652;DHT22;53334;51.976;20.144;2022-07-01T09:17:18;26.30;42.20
36652;DHT22;53334;51.976;20.144;2022-07-01T09:19:52;26.30;41.40
36652;DHT22;53334;51.976;20.144;2022-07-01T09:22:28;26.30;41.80
36652;DHT22;53334;51.976;20.144;2022-07-01T09:27:45;26.20;41.90
36652;DHT22;53334;51.976;20.144;2022-07-01T09:30:26;26.20;41.40
36652;DHT22;53334;51.976;20.144;2022-07-01T09:33:08;26.20;41.30
36652;DHT22;53334;51.976;20.144;2022-07-01T09:35:44;26.20;41.00
36652;DHT22;53334;51.976;20.144;2022-07-01T09:38:21;26.20;41.30
36652;DHT22;53334;51.976;20.144;2022-07-01T09:41:04;26.20;41.20
36652;DHT22;53334;51.976;20.144;2022-07-01T09:43:44;26.20;40.90
36652;DHT22;53334;51.976;20.144;2022-07-01T09:46:18;26.10;40.90
36652;DHT22;53334;51.976;20.144;2022-07-01T09:48:52;26.20;41.10
36652;DHT22;53334;51.976;20.144;2022-07-01T09:51:27;26.20;41.60
36652;DHT22;53334;51.976;20.144;2022-07-01T09:54:02;26.10;41.30
36652;DHT22;53334;51.976;20.144;2022-07-01T09:56:36;26.10;41.00
36652;DHT22;53334;51.976;20.144;2022-07-01T09:59:10;26.10;40.90
36652;DHT22;53334;51.976;20.144;2022-07-01T10:01:44;26.10;40.80
36652;DHT22;53334;51.976;20.144;2022-07-01T10:04:19;26.10;40.60
36652;DHT22;53334;51.976;20.144;2022-07-01T10:07:10;26.10;40.70
36652;DHT22;53334;51.976;20.144;2022-07-01T10:10:05;26.10;40.30
36652;DHT22;53334;51.976;20.144;2022-07-01T10:12:45;26.10;40.20
36652;DHT22;53334;51.976;20.144;2022-07-01T10:15:21;26.10;41.20
36652;DHT22;53334;51.976;20.144;2022-07-01T10:17:55;26.10;41.00
36652;DHT22;53334;51.976;20.144;2022-07-01T10:20:29;26.10;41.10
36652;DHT22;53334;51.976;20.144;2022-07-01T10:23:07;26.10;41.30
36652;DHT22;53334;51.976;20.144;2022-07-01T10:25:44;26.10;41.50
36652;DHT22;53334;51.976;20.144;2022-07-01T10:28:23;26.10;41.70
36652;DHT22;53334;51.976;20.144;2022-07-01T10:31:00;26.10;41.90
36652;DHT22;53334;51.976;20.144;2022-07-01T10:33:46;26.10;42.40
36652;DHT22;53334;51.976;20.144;2022-07-01T10:36:26;26.10;42.50
36652;DHT22;53334;51.976;20.144;2022-07-01T10:39:16;26.10;42.60
36652;DHT22;53334;51.976;20.144;2022-07-01T10:41:58;26.10;42.70
36652;DHT22;53334;51.976;20.144;2022-07-01T10:45:04;26.10;42.70
36652;DHT22;53334;51.976;20.144;2022-07-01T10:47:39;26.10;42.60
36652;DHT22;53334;51.976;20.144;2022-07-01T10:50:14;26.10;42.80
36652;DHT22;53334;51.976;20.144;2022-07-01T10:53:00;26.10;42.80
36652;DHT22;53334;51.976;20.144;2022-07-01T10:55:38;26.10;42.80
36652;DHT22;53334;51.976;20.144;2022-07-01T10:58:14;26.10;42.90
36652;DHT22;53334;51.976;20.144;2022-07-01T11:00:51;26.10;43.00
36652;DHT22;53334;51.976;20.144;2022-07-01T11:03:25;26.10;42.90
36652;DHT22;53334;51.976;20.144;2022-07-01T11:05:59;26.20;43.10
36652;DHT22;53334;51.976;20.144;2022-07-01T11:08:33;26.10;43.00
36652;DHT22;53334;51.976;20.144;2022-07-01T11:11:07;26.10;43.00
36652;DHT22;53334;51.976;20.144;2022-07-01T11:13:45;26.10;43.20
36652;DHT22;53334;51.976;20.144;2022-07-01T11:16:19;26.10;43.10
36652;DHT22;53334;51.976;20.144;2022-07-01T11:18:54;26.20;43.20
36652;DHT22;53334;51.976;20.144;2022-07-01T11:21:28;26.10;43.10
36652;DHT22;53334;51.976;20.144;2022-07-01T11:24:02;26.10;43.10
36652;DHT22;53334;51.976;20.144;2022-07-01T11:26:36;26.10;43.10
36652;DHT22;53334;51.976;20.144;2022-07-01T11:29:11;26.10;43.10
36652;DHT22;53334;51.976;20.144;2022-07-01T11:31:46;26.10;43.10
36652;DHT22;53334;51.976;20.144;2022-07-01T11:34:20;26.10;43.10
36652;DHT22;53334;51.976;20.144;2022-07-01T11:36:54;26.10;43.10
36652;DHT22;53334;51.976;20.144;2022-07-01T11:40:03;26.20;43.20
36652;DHT22;53334;51.976;20.144;2022-07-01T11:42:38;26.10;43.10
36652;DHT22;53334;51.976;20.144;2022-07-01T11:45:24;26.10;43.10
36652;DHT22;53334;51.976;20.144;2022-07-01T11:47:59;26.10;43.20
36652;DHT22;53334;51.976;20.144;2022-07-01T11:50:33;26.10;43.20
36652;DHT22;53334;51.976;20.144;2022-07-01T11:53:08;26.10;43.20
36652;DHT22;53334;51.976;20.144;2022-07-01T11:55:45;26.10;43.20
36652;DHT22;53334;51.976;20.144;2022-07-01T11:58:19;26.10;43.20
36652;DHT22;53334;51.976;20.144;2022-07-01T12:00:54;26.10;43.20
36652;DHT22;53334;51.976;20.144;2022-07-01T12:03:29;26.10;43.10
36652;DHT22;53334;51.976;20.144;2022-07-01T12:06:05;26.10;43.10
36652;DHT22;53334;51.976;20.144;2022-07-01T12:08:40;26.10;43.10
36652;DHT22;53334;51.976;20.144;2022-07-01T12:11:16;26.10;43.00
36652;DHT22;53334;51.976;20.144;2022-07-01T12:13:51;26.10;43.10
36652;DHT22;53334;51.976;20.144;2022-07-01T12:16:27;26.10;43.20
36652;DHT22;53334;51.976;20.144;2022-07-01T12:19:01;26.10;43.30
36652;DHT22;53334;51.976;20.144;2022-07-01T12:21:48;26.10;43.30
36652;DHT22;53334;51.976;20.144;2022-07-01T12:24:22;26.10;43.30
36652;DHT22;53334;51.976;20.144;2022-07-01T12:27:03;26.10;43.40
36652;DHT22;53334;51.976;20.144;2022-07-01T12:29:54;26.10;43.20
36652;DHT22;53334;51.976;20.144;2022-07-01T12:32:30;26.10;43.10
36652;DHT22;53334;51.976;20.144;2022-07-01T12:35:07;26.10;43.40
36652;DHT22;53334;51.976;20.144;2022-07-01T12:38:01;26.10;43.30
36652;DHT22;53334;51.976;20.144;2022-07-01T12:40:40;26.10;43.50
36652;DHT22;53334;51.976;20.144;2022-07-01T12:43:30;26.10;43.60
36652;DHT22;53334;51.976;20.144;2022-07-01T12:46:26;26.10;43.90
36652;DHT22;53334;51.976;20.144;2022-07-01T12:49:02;26.10;43.60
36652;DHT22;53334;51.976;20.144;2022-07-01T12:51:36;26.00;43.60
36652;DHT22;53334;51.976;20.144;2022-07-01T12:54:28;26.10;43.90
36652;DHT22;53334;51.976;20.144;2022-07-01T12:57:02;26.10;43.80
36652;DHT22;53334;51.976;20.144;2022-07-01T12:59:37;26.10;43.60
36652;DHT22;53334;51.976;20.144;2022-07-01T13:02:11;26.10;43.80
36652;DHT22;53334;51.976;20.144;2022-07-01T13:04:46;26.10;43.90
36652;DHT22;53334;51.976;20.144;2022-07-01T13:07:20;26.10;43.90
36652;DHT22;53334;51.976;20.144;2022-07-01T13:09:54;26.00;43.70
36652;DHT22;53334;51.976;20.144;2022-07-01T13:12:29;26.00;43.80
36652;DHT22;53334;51.976;20.144;2022-07-01T13:15:04;26.10;43.80
36652;DHT22;53334;51.976;20.144;2022-07-01T13:17:38;26.10;43.70
36652;DHT22;53334;51.976;20.144;2022-07-01T13:20:15;26.10;43.60
36652;DHT22;53334;51.976;20.144;2022-07-01T13:22:49;26.10;43.60
36652;DHT22;53334;51.976;20.144;2022-07-01T13:25:23;26.10;43.60
36652;DHT22;53334;51.976;20.144;2022-07-01T13:27:58;26.10;43.60
36652;DHT22;53334;51.976;20.144;2022-07-01T13:30:32;26.10;43.50
36652;DHT22;53334;51.976;20.144;2022-07-01T13:33:08;26.10;43.40
36652;DHT22;53334;51.976;20.144;2022-07-01T13:35:43;26.10;43.20
36652;DHT22;53334;51.976;20.144;2022-07-01T13:38:17;26.10;43.40
36652;DHT22;53334;51.976;20.144;2022-07-01T13:40:52;26.10;43.40
36652;DHT22;53334;51.976;20.144;2022-07-01T13:43:26;26.10;43.50
36652;DHT22;53334;51.976;20.144;2022-07-01T13:46:00;26.10;43.30
36652;DHT22;53334;51.976;20.144;2022-07-01T13:48:36;26.10;43.10
36652;DHT22;53334;51.976;20.144;2022-07-01T13:51:11;26.10;43.10
36652;DHT22;53334;51.976;20.144;2022-07-01T13:53:45;26.10;43.00
36652;DHT22;53334;51.976;20.144;2022-07-01T13:56:19;26.10;43.00
36652;DHT22;53334;51.976;20.144;2022-07-01T13:58:54;26.10;43.20
36652;DHT22;53334;51.976;20.144;2022-07-01T14:01:28;26.10;43.20
36652;DHT22;53334;51.976;20.144;2022-07-01T14:04:04;26.10;43.20
36652;DHT22;53334;51.976;20.144;2022-07-01T14:06:39;26.10;43.30
36652;DHT22;53334;51.976;20.144;2022-07-01T14:09:13;26.10;43.60
36652;DHT22;53334;51.976;20.144;2022-07-01T14:11:47;26.10;43.50
36652;DHT22;53334;51.976;20.144;2022-07-01T14:14:21;26.10;43.20
36652;DHT22;53334;51.976;20.144;2022-07-01T14:16:55;26.10;42.70
36652;DHT22;53334;51.976;20.144;2022-07-01T14:19:29;26.00;42.50
36652;DHT22;53334;51.976;20.144;2022-07-01T14:22:06;25.90;42.20
36652;DHT22;53334;51.976;20.144;2022-07-01T14:24:40;25.90;42.30
36652;DHT22;53334;51.976;20.144;2022-07-01T14:27:14;25.90;42.70
36652;DHT22;53334;51.976;20.144;2022-07-01T14:29:48;25.80;43.30
36652;DHT22;53334;51.976;20.144;2022-07-01T14:32:28;25.90;43.70
36652;DHT22;53334;51.976;20.144;2022-07-01T14:35:02;25.90;43.80
36652;DHT22;53334;51.976;20.144;2022-07-01T14:37:38;25.90;43.70
36652;DHT22;53334;51.976;20.144;2022-07-01T14:40:12;25.90;43.90
36652;DHT22;53334;51.976;20.144;2022-07-01T14:42:46;26.00;44.40
36652;DHT22;53334;51.976;20.144;2022-07-01T14:45:20;26.10;44.70
36652;DHT22;53334;51.976;20.144;2022-07-01T14:47:55;26.10;44.80
36652;DHT22;53334;51.976;20.144;2022-07-01T14:50:29;26.10;45.10
36652;DHT22;53334;51.976;20.144;2022-07-01T14:53:05;26.10;45.20
36652;DHT22;53334;51.976;20.144;2022-07-01T14:55:40;26.10;45.10
36652;DHT22;53334;51.976;20.144;2022-07-01T14:58:14;26.20;45.10
36652;DHT22;53334;51.976;20.144;2022-07-01T15:00:48;26.20;45.30
36652;DHT22;53334;51.976;20.144;2022-07-01T15:03:22;26.20;45.70
36652;DHT22;53334;51.976;20.144;2022-07-01T15:05:56;26.20;45.40
36652;DHT22;53334;51.976;20.144;2022-07-01T15:08:31;26.20;45.10
36652;DHT22;53334;51.976;20.144;2022-07-01T15:11:06;26.20;44.90
36652;DHT22;53334;51.976;20.144;2022-07-01T15:13:39;26.20;44.50
36652;DHT22;53334;51.976;20.144;2022-07-01T15:16:13;26.20;44.90
36652;DHT22;53334;51.976;20.144;2022-07-01T15:18:47;26.30;44.30
36652;DHT22;53334;51.976;20.144;2022-07-01T15:21:21;26.30;44.00
36652;DHT22;53334;51.976;20.144;2022-07-01T15:23:59;26.30;44.00
36652;DHT22;53334;51.976;20.144;2022-07-01T15:26:33;26.30;43.80
36652;DHT22;53334;51.976;20.144;2022-07-01T15:29:07;26.20;43.60
36652;DHT22;53334;51.976;20.144;2022-07-01T15:31:41;26.20;43.40
36652;DHT22;53334;51.976;20.144;2022-07-01T15:34:43;26.30;43.30
36652;DHT22;53334;51.976;20.144;2022-07-01T15:37:18;26.30;43.10
36652;DHT22;53334;51.976;20.144;2022-07-01T15:39:54;26.30;42.90
36652;DHT22;53334;51.976;20.144;2022-07-01T15:42:35;26.30;42.90
36652;DHT22;53334;51.976;20.144;2022-07-01T15:45:10;26.30;42.70
36652;DHT22;53334;51.976;20.144;2022-07-01T15:47:45;26.30;42.70
36652;DHT22;53334;51.976;20.144;2022-07-01T15:50:42;26.30;42.40
36652;DHT22;53334;51.976;20.144;2022-07-01T15:53:17;26.30;42.30
36652;DHT22;53334;51.976;20.144;2022-07-01T15:55:52;26.30;42.30
36652;DHT22;53334;51.976;20.144;2022-07-01T15:58:26;26.30;42.20
36652;DHT22;53334;51.976;20.144;2022-07-01T16:01:02;26.30;42.10
36652;DHT22;53334;51.976;20.144;2022-07-01T16:03:36;26.30;42.10
36652;DHT22;53334;51.976;20.144;2022-07-01T16:06:11;26.30;42.10
36652;DHT22;53334;51.976;20.144;2022-07-01T16:08:50;26.30;41.90
36652;DHT22;53334;51.976;20.144;2022-07-01T16:11:49;26.30;42.00